Time;durP1;ratioP1;P1;durP2;ratioP2;P2;SDS_P1;SDS_P2;PMS_P1;PMS_P2;Temp;Humidity;BMP_temperature;BMP_pressure;BME280_temperature;BME280_humidity;BME280_pressure;Samples;Min_cycle;Max_cycle;Signal;HPM_P1;HPM_P2
2021/12/19 00:02:11;;;;;;;0.52;0.52;;;31.00;93.10;;;;;;5113560;28;20027;-77
2021/12/19 00:08:27;;;;;;;0.25;0.22;;;31.00;93.50;;;;;;5100764;28;20071;-79
2021/12/19 00:10:11;;;;;;;;;;;30.90;93.00;;;;;;5114243;28;20127;-80
2021/12/19 00:12:38;;;;;;;0.98;0.30;;;30.90;93.20;;;;;;5114529;28;19954;-79
2021/12/19 00:15:06;;;;;;;1.17;0.40;;;30.80;92.20;;;;;;5108569;28;20524;-78
2021/12/19 00:17:33;;;;;;;0.40;0.20;;;30.80;92.70;;;;;;5104428;28;20520;-79
2021/12/19 00:20:01;;;;;;;0.10;0.10;;;30.80;93.10;;;;;;5110793;28;20023;-77
2021/12/19 00:22:28;;;;;;;0.30;0.13;;;30.90;92.90;;;;;;5106897;28;20376;-78
2021/12/19 00:24:55;;;;;;;1.42;0.30;;;31.00;93.00;;;;;;5109723;28;20047;-77
2021/12/19 00:27:23;;;;;;;2.95;0.20;;;31.20;92.60;;;;;;5110407;28;20031;-77
2021/12/19 00:29:50;;;;;;;0.60;0.10;;;31.50;92.70;;;;;;5103106;28;20019;-78
2021/12/19 00:32:17;;;;;;;0.17;0.10;;;31.60;91.90;;;;;;5108371;28;20097;-77
2021/12/19 00:34:45;;;;;;;0.50;0.20;;;31.90;91.70;;;;;;5110591;28;20039;-80
2021/12/19 00:37:12;;;;;;;0.38;0.20;;;32.00;91.30;;;;;;5106841;28;20493;-77
2021/12/19 00:39:39;;;;;;;2.15;0.35;;;32.20;91.40;;;;;;5114278;27;20047;-76
2021/12/19 00:42:08;;;;;;;0.40;0.20;;;32.40;90.50;;;;;;5105578;28;20024;-77
2021/12/19 00:44:37;;;;;;;0.30;0.30;;;32.60;91.00;;;;;;5109913;28;20031;-78
2021/12/19 00:47:07;;;;;;;0.43;0.20;;;32.90;90.20;;;;;;5106745;27;20028;-76
2021/12/19 00:49:38;;;;;;;0.28;0.13;;;33.20;91.60;;;;;;5110547;28;20874;-76
2021/12/19 00:52:05;;;;;;;0.85;0.25;;;33.50;91.00;;;;;;5110816;28;20035;-77
2021/12/19 00:54:33;;;;;;;0.10;0.10;;;33.80;89.00;;;;;;5113337;28;20032;-74
2021/12/19 00:57:00;;;;;;;0.43;0.10;;;33.80;88.50;;;;;;5105048;28;20042;-77
2021/12/19 00:59:27;;;;;;;0.20;0.15;;;33.80;87.60;;;;;;5109933;28;20478;-74
2021/12/19 01:01:55;;;;;;;1.08;0.40;;;33.80;85.40;;;;;;5099316;28;20020;-77
2021/12/19 01:04:22;;;;;;;1.13;0.45;;;33.70;84.40;;;;;;5099062;28;20527;-77
2021/12/19 01:06:50;;;;;;;0.90;0.30;;;33.70;85.70;;;;;;5105341;28;20040;-76
2021/12/19 01:09:18;;;;;;;1.77;0.30;;;33.60;83.80;;;;;;5104765;28;20049;-78
2021/12/19 01:11:48;;;;;;;0.75;0.10;;;33.60;83.40;;;;;;5108220;28;20040;-78
2021/12/19 01:14:17;;;;;;;0.60;0.28;;;33.70;82.60;;;;;;5111230;28;20130;-78
2021/12/19 01:16:44;;;;;;;0.50;0.25;;;33.70;85.00;;;;;;5111729;28;20466;-79
2021/12/19 01:19:11;;;;;;;0.38;0.15;;;33.60;86.30;;;;;;5111861;28;20019;-77
2021/12/19 01:21:39;;;;;;;0.43;0.10;;;33.80;84.10;;;;;;5107679;28;20051;-77
2021/12/19 01:24:06;;;;;;;0.20;0.10;;;34.10;82.30;;;;;;5110674;28;20409;-78
2021/12/19 01:26:34;;;;;;;0.65;0.15;;;34.50;81.60;;;;;;5106671;28;20028;-79
2021/12/19 01:29:01;;;;;;;0.70;0.38;;;34.70;81.30;;;;;;5111135;28;20094;-78
2021/12/19 01:31:29;;;;;;;1.73;0.15;;;35.10;81.00;;;;;;5100039;28;20096;-78
2021/12/19 01:33:56;;;;;;;1.17;0.22;;;35.30;80.60;;;;;;5101284;28;20600;-78
2021/12/19 01:36:23;;;;;;;0.30;0.20;;;35.70;78.10;;;;;;5101660;28;20147;-78
2021/12/19 01:41:58;;;;;;;0.10;0.10;;;35.60;77.20;;;;;;5094885;28;20055;-77
2021/12/19 01:44:29;;;;;;;2.83;0.30;;;35.70;78.30;;;;;;5106801;28;20317;-80
2021/12/19 01:46:59;;;;;;;0.75;0.30;;;35.80;77.70;;;;;;5113194;28;20119;-78
2021/12/19 01:49:26;;;;;;;0.50;0.30;;;35.90;77.70;;;;;;5111675;28;20462;-78
2021/12/19 01:51:54;;;;;;;0.63;0.20;;;36.00;76.60;;;;;;5108187;28;20035;-76
2021/12/19 01:54:22;;;;;;;0.10;0.00;;;36.20;73.70;;;;;;5110871;28;20059;-77
2021/12/19 01:56:49;;;;;;;1.33;0.20;;;36.00;72.20;;;;;;5111234;28;20551;-77
2021/12/19 01:59:17;;;;;;;0.40;0.10;;;35.90;73.00;;;;;;5112260;28;20073;-76
2021/12/19 02:01:48;;;;;;;0.60;0.30;;;35.90;72.50;;;;;;5111870;28;20054;-77
2021/12/19 02:04:17;;;;;;;0.65;0.25;;;36.00;72.80;;;;;;5112353;28;20373;-77
2021/12/19 02:06:45;;;;;;;0.20;0.10;;;36.10;70.20;;;;;;5105670;28;20028;-77
2021/12/19 02:09:13;;;;;;;1.55;0.10;;;35.80;68.60;;;;;;5103212;28;20046;-78
2021/12/19 02:11:41;;;;;;;0.80;0.22;;;35.80;70.20;;;;;;5112330;28;20039;-78
2021/12/19 02:14:11;;;;;;;0.32;0.13;;;36.00;67.00;;;;;;5112596;28;20044;-78
2021/12/19 02:16:41;;;;;;;1.15;0.20;;;36.30;67.60;;;;;;5112802;28;20075;-81
2021/12/19 02:19:09;;;;;;;2.45;0.75;;;36.70;66.30;;;;;;5110748;28;20043;-81
2021/12/19 02:21:37;;;;;;;0.22;0.10;;;36.80;64.50;;;;;;5110868;28;20710;-79
2021/12/19 02:24:08;;;;;;;2.28;0.20;;;36.40;65.60;;;;;;5113363;28;20050;-79
2021/12/19 02:26:38;;;;;;;0.15;0.10;;;36.30;64.80;;;;;;5108138;28;20028;-78
2021/12/19 02:29:06;;;;;;;0.32;0.20;;;36.10;65.80;;;;;;5106759;28;20030;-78
2021/12/19 02:31:34;;;;;;;0.47;0.10;;;36.20;65.10;;;;;;5106424;28;20091;-79
2021/12/19 02:36:49;;;;;;;1.27;0.20;;;35.60;65.40;;;;;;5108817;28;20016;-75
2021/12/19 02:50:20;;;;;;;0.80;0.50;;;35.30;65.70;;;;;;5106763;28;20074;-77
2021/12/19 02:52:48;;;;;;;1.10;0.45;;;35.60;64.90;;;;;;5104825;28;20038;-76
2021/12/19 02:55:17;;;;;;;2.15;0.20;;;35.80;64.90;;;;;;5107325;28;20061;-78
2021/12/19 02:57:45;;;;;;;0.55;0.20;;;36.30;65.40;;;;;;5109047;28;20111;-78
2021/12/19 03:00:16;;;;;;;0.50;0.20;;;36.10;65.10;;;;;;5106367;28;20504;-74
2021/12/19 03:02:43;;;;;;;0.75;0.25;;;36.20;65.20;;;;;;5107134;28;20022;-75
2021/12/19 03:05:11;;;;;;;0.30;0.17;;;36.10;63.80;;;;;;5109584;28;20019;-78
2021/12/19 03:07:42;;;;;;;0.43;0.40;;;35.80;64.10;;;;;;5104521;28;20027;-80
2021/12/19 03:10:58;;;;;;;0.30;0.10;;;35.60;64.60;;;;;;5104405;28;20028;-82
2021/12/19 03:18:42;;;;;;;1.08;0.22;;;36.00;64.10;;;;;;5110164;28;20092;-79
2021/12/19 03:21:13;;;;;;;0.22;0.20;;;35.80;65.00;;;;;;5109464;28;20115;-78
2021/12/19 03:23:41;;;;;;;0.85;0.10;;;35.60;65.70;;;;;;5102500;28;20035;-80
2021/12/19 03:26:09;;;;;;;0.30;0.20;;;35.40;65.40;;;;;;5110540;28;20209;-81
2021/12/19 03:28:37;;;;;;;0.30;0.20;;;35.50;64.80;;;;;;5105984;28;20051;-81
2021/12/19 03:31:05;;;;;;;4.05;0.20;;;35.60;64.80;;;;;;5106915;28;20016;-80
2021/12/19 03:33:35;;;;;;;0.30;0.10;;;36.00;65.60;;;;;;5100399;28;20062;-77
2021/12/19 03:36:05;;;;;;;1.02;0.28;;;36.20;64.30;;;;;;5105984;28;20027;-77
2021/12/19 03:38:39;;;;;;;0.70;0.28;;;35.80;64.30;;;;;;5099256;28;20012;-76
2021/12/19 03:41:22;;;;;;;0.28;0.13;;;35.50;65.50;;;;;;5103807;28;20052;-76
2021/12/19 03:43:50;;;;;;;0.32;0.20;;;35.40;64.30;;;;;;5104353;28;20035;-76
2021/12/19 03:46:18;;;;;;;1.70;0.30;;;35.10;65.30;;;;;;5104669;28;20012;-75
2021/12/19 03:48:45;;;;;;;0.20;0.20;;;35.10;65.80;;;;;;5103974;28;20110;-75
2021/12/19 03:51:13;;;;;;;0.40;0.13;;;35.30;65.90;;;;;;5102664;28;20151;-77
2021/12/19 03:53:40;;;;;;;2.05;0.20;;;35.60;65.00;;;;;;5104491;28;20470;-77
2021/12/19 03:56:08;;;;;;;1.55;0.28;;;35.80;65.10;;;;;;5103675;28;20102;-75
2021/12/19 03:58:35;;;;;;;0.30;0.10;;;35.70;64.60;;;;;;5111468;28;20020;-80
2021/12/19 04:01:06;;;;;;;0.13;0.10;;;35.20;63.10;;;;;;5110265;28;20024;-76
2021/12/19 04:03:33;;;;;;;0.10;0.08;;;34.60;64.90;;;;;;5092523;28;20378;-77
2021/12/19 04:06:01;;;;;;;1.08;0.10;;;34.10;65.50;;;;;;5111030;28;20020;-76
2021/12/19 04:08:28;;;;;;;0.20;0.20;;;33.70;64.80;;;;;;5103490;28;20115;-75
2021/12/19 04:10:56;;;;;;;0.20;0.20;;;33.60;65.60;;;;;;5108463;28;20036;-82
2021/12/19 04:13:24;;;;;;;0.08;0.08;;;33.40;65.20;;;;;;5111315;28;20046;-76
2021/12/19 04:15:52;;;;;;;1.23;0.10;;;33.20;66.10;;;;;;5095621;28;20024;-75
2021/12/19 04:18:19;;;;;;;0.30;0.10;;;33.20;65.60;;;;;;5108132;28;20115;-75
2021/12/19 04:20:47;;;;;;;0.80;0.10;;;33.30;65.10;;;;;;5105694;28;20077;-76
2021/12/19 04:23:15;;;;;;;1.55;0.10;;;33.30;64.80;;;;;;5102191;28;20019;-78
2021/12/19 04:25:43;;;;;;;0.93;0.20;;;33.30;65.20;;;;;;5107810;28;20020;-77
2021/12/19 04:28:10;;;;;;;0.38;0.20;;;33.50;65.10;;;;;;5111164;28;20061;-78
2021/12/19 04:30:38;;;;;;;1.02;0.20;;;33.70;64.70;;;;;;5109877;28;20024;-77
2021/12/19 04:33:10;;;;;;;1.25;0.32;;;34.10;65.80;;;;;;5105992;28;20027;-76
2021/12/19 04:35:41;;;;;;;2.60;0.20;;;34.30;63.70;;;;;;5104083;28;20031;-75
2021/12/19 04:54:34;;;;;;;1.85;0.52;;;32.80;65.50;;;;;;5111375;28;20032;-79
2021/12/19 04:57:24;;;;;;;0.52;0.10;;;32.60;64.30;;;;;;5109513;28;20020;-80
2021/12/19 05:16:07;;;;;;;0.90;0.30;;;31.40;66.50;;;;;;5109784;28;20143;-79
2021/12/19 05:18:38;;;;;;;0.57;0.20;;;31.30;66.30;;;;;;5112436;28;20036;-77
2021/12/19 05:21:14;;;;;;;1.35;0.32;;;31.20;67.30;;;;;;5104876;28;20015;-78
2021/12/19 05:26:27;;;;;;;0.55;0.30;;;31.00;66.60;;;;;;5111475;28;20055;-77
2021/12/19 05:28:54;;;;;;;0.88;0.30;;;31.00;66.80;;;;;;5111790;28;20474;-77
2021/12/19 05:31:22;;;;;;;0.75;0.20;;;30.90;67.60;;;;;;5109630;28;20087;-80
2021/12/19 05:33:50;;;;;;;1.38;0.30;;;30.80;67.80;;;;;;5107508;28;20367;-77
2021/12/19 05:47:09;;;;;;;0.55;0.40;;;30.60;65.10;;;;;;5110702;28;20100;-79
2021/12/19 05:49:37;;;;;;;0.35;0.20;;;30.60;65.80;;;;;;5100346;28;20107;-82
2021/12/19 05:52:04;;;;;;;0.35;0.20;;;30.50;65.80;;;;;;5104555;28;20036;-79
2021/12/19 05:54:31;;;;;;;0.93;0.30;;;30.40;64.70;;;;;;5105885;28;20119;-79
2021/12/19 05:56:59;;;;;;;0.43;0.20;;;30.40;65.10;;;;;;5108378;28;20028;-79
2021/12/19 05:59:27;;;;;;;0.73;0.20;;;30.30;65.80;;;;;;5104802;28;20390;-79
2021/12/19 06:01:54;;;;;;;1.08;0.30;;;30.20;65.90;;;;;;5105536;28;20075;-78
2021/12/19 06:04:21;;;;;;;1.02;0.20;;;30.20;66.10;;;;;;5101993;28;20023;-78
2021/12/19 06:06:51;;;;;;;0.40;0.20;;;30.10;64.60;;;;;;5104619;28;20032;-80
2021/12/19 06:09:18;;;;;;;0.43;0.20;;;30.00;65.90;;;;;;5102498;28;20464;-77
2021/12/19 06:11:46;;;;;;;0.13;0.10;;;29.90;65.70;;;;;;5105048;28;20512;-76
2021/12/19 06:14:13;;;;;;;0.90;0.20;;;29.80;66.10;;;;;;5104497;28;20479;-77
2021/12/19 06:16:40;;;;;;;0.88;0.20;;;29.70;66.70;;;;;;5105715;28;20110;-76
2021/12/19 06:19:08;;;;;;;0.52;0.10;;;29.60;67.30;;;;;;5110772;28;20378;-77
2021/12/19 06:21:35;;;;;;;2.22;0.32;;;29.50;67.60;;;;;;5106013;28;20115;-78
2021/12/19 06:24:02;;;;;;;1.25;0.25;;;29.40;68.20;;;;;;5104572;28;20020;-77
2021/12/19 06:26:33;;;;;;;0.17;0.13;;;29.40;68.70;;;;;;5101166;28;20382;-77
2021/12/19 06:29:01;;;;;;;1.75;0.20;;;29.30;69.30;;;;;;5103239;28;20031;-76
2021/12/19 06:31:28;;;;;;;0.52;0.13;;;29.20;69.40;;;;;;5107500;28;20016;-77
2021/12/19 06:33:55;;;;;;;0.25;0.22;;;29.20;69.50;;;;;;5109451;28;20155;-78
2021/12/19 06:36:23;;;;;;;0.25;0.13;;;29.20;69.90;;;;;;5106112;28;20394;-78
2021/12/19 06:38:50;;;;;;;0.40;0.10;;;29.10;70.80;;;;;;5110012;28;20042;-81
2021/12/19 06:41:17;;;;;;;1.48;0.10;;;29.00;70.80;;;;;;5103289;28;20069;-81
2021/12/19 06:43:45;;;;;;;1.17;0.20;;;28.90;71.50;;;;;;5109721;28;20478;-81
2021/12/19 06:46:13;;;;;;;0.30;0.13;;;28.90;71.70;;;;;;5114062;28;20024;-79
2021/12/19 06:48:40;;;;;;;1.52;0.10;;;28.80;72.20;;;;;;5117674;28;20051;-81
2021/12/19 06:51:08;;;;;;;0.20;0.20;;;28.70;72.20;;;;;;5116192;28;20062;-81
2021/12/19 06:53:35;;;;;;;0.77;0.30;;;28.70;72.70;;;;;;5114165;27;20375;-81
2021/12/19 06:56:05;;;;;;;0.52;0.10;;;28.70;73.30;;;;;;5108537;27;20057;-81
2021/12/19 06:58:33;;;;;;;0.20;0.20;;;28.70;73.60;;;;;;5101930;28;20023;-79
2021/12/19 07:01:00;;;;;;;0.45;0.10;;;28.60;73.80;;;;;;5107695;28;20111;-80
2021/12/19 07:03:27;;;;;;;0.57;0.20;;;28.50;73.90;;;;;;5106734;28;20463;-79
2021/12/19 07:05:55;;;;;;;0.98;0.28;;;28.50;74.30;;;;;;5107417;28;20024;-79
2021/12/19 07:08:22;;;;;;;4.50;1.27;;;28.50;74.20;;;;;;5108587;28;20030;-77
2021/12/19 07:10:51;;;;;;;1.30;0.30;;;28.50;74.40;;;;;;5105533;28;20028;-76
2021/12/19 07:13:21;;;;;;;0.63;0.22;;;28.50;74.60;;;;;;5107168;28;20028;-79
2021/12/19 07:15:53;;;;;;;0.77;0.28;;;28.50;74.50;;;;;;5093875;28;20085;-79
2021/12/19 07:18:21;;;;;;;0.90;0.38;;;28.60;75.00;;;;;;5101652;28;20024;-80
2021/12/19 07:20:49;;;;;;;0.73;0.70;;;28.50;74.80;;;;;;5108040;28;20035;-82
2021/12/19 07:23:18;;;;;;;1.00;0.30;;;28.60;76.90;;;;;;5103536;28;20043;-77
2021/12/19 07:25:46;;;;;;;2.83;0.20;;;28.00;84.50;;;;;;5099443;28;20474;-76
2021/12/19 07:28:14;;;;;;;2.45;0.30;;;27.10;87.20;;;;;;5100191;28;20024;-77
2021/12/19 07:30:42;;;;;;;1.15;0.22;;;26.60;89.40;;;;;;5101573;28;20058;-76
2021/12/19 07:33:12;;;;;;;1.45;0.35;;;26.30;91.10;;;;;;5100691;28;20039;-76
2021/12/19 07:35:42;;;;;;;0.90;0.32;;;26.20;91.40;;;;;;5108579;28;20043;-77
2021/12/19 07:38:15;;;;;;;0.43;0.38;;;26.20;92.30;;;;;;5107771;28;20188;-79
2021/12/19 07:40:46;;;;;;;0.75;0.15;;;26.20;92.30;;;;;;5105305;28;20498;-77
2021/12/19 07:43:15;;;;;;;0.30;0.10;;;26.30;91.20;;;;;;5111011;28;20016;-76
2021/12/19 07:45:43;;;;;;;0.60;0.20;;;26.40;88.20;;;;;;5110208;28;20027;-77
2021/12/19 07:48:10;;;;;;;0.38;0.20;;;26.50;87.70;;;;;;5107135;28;20111;-78
2021/12/19 07:50:38;;;;;;;0.55;0.20;;;26.60;84.30;;;;;;5105813;28;20021;-77
2021/12/19 07:53:05;;;;;;;0.40;0.20;;;26.70;83.30;;;;;;5109224;28;20027;-77
2021/12/19 07:55:33;;;;;;;0.22;0.10;;;26.70;82.60;;;;;;5106841;28;20038;-77
2021/12/19 07:58:00;;;;;;;0.20;0.20;;;26.70;82.30;;;;;;5101095;28;20647;-78
2021/12/19 08:00:28;;;;;;;0.35;0.35;;;26.60;82.50;;;;;;5101243;28;20020;-76
2021/12/19 08:02:55;;;;;;;0.85;0.20;;;26.60;81.80;;;;;;5102627;28;20530;-77
2021/12/19 08:05:23;;;;;;;1.48;0.10;;;26.60;81.20;;;;;;5103495;28;20497;-77
2021/12/19 08:07:56;;;;;;;0.82;0.17;;;26.50;82.60;;;;;;5106314;28;21175;-76
2021/12/19 08:12:51;;;;;;;0.17;0.10;;;26.40;83.20;;;;;;5110907;28;20039;-77
2021/12/19 08:15:18;;;;;;;0.82;0.20;;;26.40;82.20;;;;;;5106817;28;20085;-77
2021/12/19 08:17:45;;;;;;;0.50;0.28;;;26.40;83.60;;;;;;5101516;27;20036;-78
2021/12/19 08:20:14;;;;;;;0.30;0.20;;;26.40;84.80;;;;;;5110991;28;20030;-78
2021/12/19 08:22:42;;;;;;;0.85;0.17;;;26.50;87.50;;;;;;5102868;28;20057;-76
2021/12/19 08:25:09;;;;;;;1.73;0.20;;;26.40;88.50;;;;;;5108217;28;20024;-76
2021/12/19 08:27:37;;;;;;;0.60;0.20;;;26.40;88.60;;;;;;5112548;28;20020;-77
2021/12/19 08:30:08;;;;;;;0.85;0.30;;;26.30;88.20;;;;;;5113856;28;20064;-77
2021/12/19 08:32:36;;;;;;;2.72;0.30;;;26.20;89.00;;;;;;5112136;28;20161;-81
2021/12/19 08:35:06;;;;;;;0.85;0.20;;;26.10;86.50;;;;;;5112190;28;20035;-80
2021/12/19 08:37:34;;;;;;;1.35;0.25;;;26.10;85.90;;;;;;5112935;28;20382;-79
2021/12/19 08:40:03;;;;;;;0.20;0.20;;;25.90;85.00;;;;;;5109898;28;20075;-77
2021/12/19 08:42:32;;;;;;;0.25;0.20;;;25.80;85.40;;;;;;5111049;28;20033;-77
2021/12/19 08:44:59;;;;;;;1.58;0.25;;;25.80;84.60;;;;;;5106848;28;20023;-77
2021/12/19 08:47:27;;;;;;;2.90;0.10;;;25.60;84.40;;;;;;5108514;28;20427;-78
2021/12/19 08:49:57;;;;;;;0.52;0.25;;;25.50;84.40;;;;;;5108510;28;20050;-77
2021/12/19 08:52:24;;;;;;;0.50;0.20;;;25.40;83.90;;;;;;5112874;28;20471;-78
2021/12/19 08:54:52;;;;;;;0.73;0.20;;;25.30;84.30;;;;;;5110379;28;20059;-78
2021/12/19 08:57:19;;;;;;;1.30;0.20;;;25.20;84.80;;;;;;5111250;28;20023;-77
2021/12/19 08:59:47;;;;;;;0.30;0.20;;;25.10;84.30;;;;;;5109446;28;20049;-78
2021/12/19 09:02:14;;;;;;;0.30;0.20;;;25.00;84.50;;;;;;5105772;28;20023;-78
2021/12/19 09:04:41;;;;;;;0.32;0.20;;;24.90;84.80;;;;;;5103368;28;20012;-79
2021/12/19 09:07:09;;;;;;;0.32;0.20;;;24.80;85.70;;;;;;5104094;28;20027;-78
2021/12/19 09:09:36;;;;;;;0.30;0.20;;;24.70;85.80;;;;;;5104988;28;20498;-76
2021/12/19 09:12:04;;;;;;;0.88;0.35;;;24.60;86.40;;;;;;5100832;27;20465;-76
2021/12/19 09:14:31;;;;;;;0.57;0.10;;;24.50;86.40;;;;;;5107100;28;20058;-75
2021/12/19 09:16:59;;;;;;;0.77;0.30;;;24.50;86.50;;;;;;5100621;28;20032;-76
2021/12/19 09:19:27;;;;;;;0.20;0.20;;;24.50;86.90;;;;;;5103649;28;20097;-76
2021/12/19 09:21:54;;;;;;;0.43;0.30;;;24.40;87.00;;;;;;5106041;28;20016;-76
2021/12/19 09:24:22;;;;;;;0.63;0.25;;;24.40;87.60;;;;;;5105204;27;20076;-76
2021/12/19 09:26:49;;;;;;;1.58;0.38;;;24.40;87.90;;;;;;5103731;27;20047;-77
2021/12/19 09:29:17;;;;;;;0.35;0.20;;;24.30;88.50;;;;;;5100717;28;20019;-76
2021/12/19 09:31:44;;;;;;;1.65;0.20;;;24.30;89.20;;;;;;5105439;28;20023;-77
2021/12/19 09:34:11;;;;;;;2.00;0.38;;;24.40;88.60;;;;;;5108839;28;20062;-78
2021/12/19 09:36:39;;;;;;;3.80;0.30;;;24.40;89.40;;;;;;5109508;28;20053;-75
2021/12/19 09:39:06;;;;;;;1.75;0.77;;;24.40;89.40;;;;;;5108737;28;20054;-75
2021/12/19 09:41:42;;;;;;;2.22;0.35;;;24.40;89.70;;;;;;5113256;28;20110;-76
2021/12/19 09:44:09;;;;;;;;;;;24.30;89.90;;;;;;5107687;28;20023;-76
2021/12/19 09:46:42;;;;;;;0.43;0.30;;;24.20;90.10;;;;;;5106958;28;19907;-77
2021/12/19 09:49:12;;;;;;;1.80;0.30;;;24.10;90.40;;;;;;5109507;28;20038;-77
2021/12/19 09:51:40;;;;;;;0.88;0.30;;;24.10;90.50;;;;;;5106983;28;20024;-77
2021/12/19 09:54:09;;;;;;;0.75;0.10;;;24.10;90.30;;;;;;5109167;28;21102;-77
2021/12/19 09:56:38;;;;;;;1.27;0.13;;;24.10;90.60;;;;;;5107522;28;20082;-75
2021/12/19 09:59:15;;;;;;;2.03;0.80;;;24.00;90.60;;;;;;5104875;28;20111;-78
2021/12/19 10:01:43;;;;;;;0.10;0.10;;;23.90;90.70;;;;;;5108042;28;20027;-79
2021/12/19 10:04:38;;;;;;;2.15;0.32;;;23.90;90.80;;;;;;5102958;28;20020;-77
2021/12/19 10:07:15;;;;;;;0.82;0.10;;;23.80;91.20;;;;;;5105820;28;20043;-79
2021/12/19 10:10:12;;;;;;;1.58;0.20;;;23.80;91.20;;;;;;5107354;27;20058;-79
2021/12/19 10:15:17;;;;;;;2.83;0.25;;;23.70;91.40;;;;;;5109699;28;20035;-79
2021/12/19 10:17:44;;;;;;;0.30;0.10;;;23.70;91.50;;;;;;5103986;28;20028;-80
2021/12/19 10:20:14;;;;;;;0.82;0.30;;;23.70;91.60;;;;;;5110336;28;20070;-80
2021/12/19 10:22:47;;;;;;;0.20;0.17;;;23.70;91.80;;;;;;5107861;28;20371;-79
2021/12/19 10:25:23;;;;;;;0.30;0.20;;;23.60;91.80;;;;;;5104938;28;20028;-78
2021/12/19 10:28:02;;;;;;;0.08;0.08;;;23.60;92.00;;;;;;5112694;28;20054;-79
2021/12/19 10:30:48;;;;;;;1.83;0.30;;;23.60;92.20;;;;;;5110141;28;20111;-78
2021/12/19 10:33:19;;;;;;;0.20;0.13;;;23.60;92.10;;;;;;5107866;28;20543;-78
2021/12/19 10:35:49;;;;;;;0.10;0.10;;;23.60;92.30;;;;;;5104396;28;20032;-79
2021/12/19 10:38:34;;;;;;;0.57;0.20;;;23.50;92.50;;;;;;5100453;28;20016;-78
2021/12/19 10:41:12;;;;;;;0.33;0.20;;;23.60;92.60;;;;;;5108467;28;20042;-78
2021/12/19 10:46:53;;;;;;;0.52;0.20;;;23.50;92.90;;;;;;5080501;28;20368;-79
2021/12/19 10:49:32;;;;;;;1.48;0.30;;;23.50;92.90;;;;;;5113234;28;20031;-79
2021/12/19 10:52:01;;;;;;;1.23;0.38;;;23.50;93.00;;;;;;5112344;28;20024;-80
2021/12/19 10:54:29;;;;;;;0.73;0.13;;;23.40;93.40;;;;;;5109781;28;20046;-79
2021/12/19 10:57:12;;;;;;;1.38;0.10;;;23.30;93.70;;;;;;5107179;28;20023;-78
2021/12/19 10:59:43;;;;;;;0.10;0.10;;;23.30;93.70;;;;;;5109327;28;20031;-79
2021/12/19 11:02:11;;;;;;;1.65;0.30;;;23.30;94.30;;;;;;5111216;28;20428;-79
2021/12/19 11:04:38;;;;;;;0.88;0.30;;;23.20;94.40;;;;;;5110614;28;20027;-78
2021/12/19 11:07:06;;;;;;;0.55;0.28;;;23.20;94.70;;;;;;5092887;28;20024;-79
2021/12/19 11:09:38;;;;;;;3.75;0.57;;;23.10;95.00;;;;;;5111745;28;20020;-80
2021/12/19 11:12:11;;;;;;;0.43;0.30;;;23.10;95.20;;;;;;5103406;28;20035;-79
2021/12/19 11:14:49;;;;;;;0.98;0.30;;;23.00;95.50;;;;;;5103835;28;20024;-79
2021/12/19 11:17:20;;;;;;;0.70;0.30;;;23.00;95.30;;;;;;5112034;28;20560;-78
2021/12/19 11:19:50;;;;;;;0.65;0.40;;;22.90;95.40;;;;;;5111726;28;20386;-78
2021/12/19 11:22:23;;;;;;;0.98;0.52;;;22.90;95.70;;;;;;5108829;28;20423;-80
2021/12/19 11:24:55;;;;;;;0.52;0.40;;;22.90;96.00;;;;;;5111675;28;20023;-78
2021/12/19 11:27:23;;;;;;;0.30;0.20;;;22.80;96.20;;;;;;5111627;28;20084;-79
2021/12/19 11:29:55;;;;;;;1.92;0.25;;;22.80;96.40;;;;;;5111759;28;20055;-79
2021/12/19 11:32:40;;;;;;;0.25;0.20;;;22.80;96.80;;;;;;5108331;28;20035;-80
2021/12/19 11:35:14;;;;;;;0.30;0.30;;;22.80;97.10;;;;;;5109691;28;20051;-80
2021/12/19 11:37:52;;;;;;;1.03;0.20;;;22.80;97.30;;;;;;5110369;28;20343;-79
2021/12/19 11:40:23;;;;;;;0.80;0.20;;;22.80;97.40;;;;;;5108457;28;20086;-79
2021/12/19 11:43:00;;;;;;;1.75;0.40;;;22.80;97.50;;;;;;5104540;28;20487;-80
2021/12/19 11:45:41;;;;;;;0.52;0.30;;;22.80;97.80;;;;;;5107662;28;20047;-79
2021/12/19 11:48:32;;;;;;;0.47;0.28;;;22.80;98.20;;;;;;5106749;28;20089;-78
2021/12/19 11:51:16;;;;;;;1.65;0.85;;;22.80;98.40;;;;;;5099147;28;20028;-79
2021/12/19 11:53:43;;;;;;;1.75;0.35;;;22.70;98.30;;;;;;5106836;28;20047;-83
2021/12/19 11:56:14;;;;;;;0.25;0.25;;;22.80;98.90;;;;;;5110579;28;20012;-82
2021/12/19 11:58:49;;;;;;;4.03;0.47;;;22.80;98.70;;;;;;5089868;28;20410;-82
2021/12/19 12:01:22;;;;;;;0.67;0.40;;;22.70;98.70;;;;;;5107757;28;20466;-81
2021/12/19 12:04:03;;;;;;;0.50;0.32;;;22.80;98.80;;;;;;5115550;27;20062;-82
2021/12/19 12:06:32;;;;;;;1.15;0.30;;;22.70;99.00;;;;;;5113206;28;20339;-81
2021/12/19 12:09:16;;;;;;;1.35;0.30;;;22.70;99.30;;;;;;5115412;28;20059;-81
2021/12/19 12:12:07;;;;;;;1.00;0.32;;;22.80;99.60;;;;;;5113403;28;20111;-80
2021/12/19 12:14:38;;;;;;;2.05;0.30;;;22.70;99.90;;;;;;5113385;28;20075;-81
2021/12/19 12:17:22;;;;;;;0.40;0.28;;;22.70;99.90;;;;;;5108831;28;20042;-79
2021/12/19 12:19:53;;;;;;;1.20;0.35;;;22.70;99.90;;;;;;5100801;28;20110;-82
2021/12/19 12:22:24;;;;;;;0.75;0.30;;;22.70;99.90;;;;;;5096676;28;20031;-81
2021/12/19 12:25:16;;;;;;;1.33;0.40;;;22.70;99.90;;;;;;5110739;28;20479;-82
2021/12/19 12:27:54;;;;;;;0.80;0.32;;;22.70;99.90;;;;;;5110135;28;20032;-81
2021/12/19 12:30:35;;;;;;;0.73;0.35;;;22.60;99.90;;;;;;5101675;28;20383;-80
2021/12/19 12:33:06;;;;;;;2.03;0.55;;;22.50;99.90;;;;;;5098991;28;20032;-82
2021/12/19 12:35:36;;;;;;;0.77;0.50;;;22.50;99.90;;;;;;5112703;28;20019;-79
2021/12/19 12:38:05;;;;;;;0.20;0.10;;;22.50;99.90;;;;;;5109133;27;20024;-83
2021/12/19 12:40:47;;;;;;;1.48;0.50;;;22.50;99.90;;;;;;5110720;28;20109;-82
2021/12/19 12:43:35;;;;;;;1.33;0.30;;;22.50;99.90;;;;;;5111488;28;20944;-81
2021/12/19 12:46:06;;;;;;;2.92;1.27;;;22.40;99.90;;;;;;5108076;28;20399;-84
2021/12/19 12:48:54;;;;;;;0.52;0.38;;;22.50;99.90;;;;;;5112904;28;20031;-83
2021/12/19 12:51:33;;;;;;;1.05;0.30;;;22.50;99.90;;;;;;5104372;28;20031;-82
2021/12/19 12:54:07;;;;;;;0.98;0.40;;;22.50;99.90;;;;;;5109324;28;20031;-80
2021/12/19 12:56:41;;;;;;;0.77;0.40;;;22.50;99.90;;;;;;5108843;28;20028;-81
2021/12/19 12:59:10;;;;;;;2.75;0.30;;;22.50;99.90;;;;;;5112681;28;20107;-80
2021/12/19 13:02:12;;;;;;;0.38;0.25;;;22.50;99.90;;;;;;5111652;28;20114;-78
2021/12/19 13:04:48;;;;;;;1.75;0.28;;;22.50;99.90;;;;;;5109309;28;20461;-77
2021/12/19 13:07:16;;;;;;;0.60;0.30;;;22.50;99.90;;;;;;5109861;28;20412;-81
2021/12/19 13:09:51;;;;;;;0.82;0.32;;;22.50;99.90;;;;;;5091719;28;20395;-81
2021/12/19 13:12:36;;;;;;;0.40;0.30;;;22.50;99.90;;;;;;5103259;28;20027;-79
2021/12/19 13:15:07;;;;;;;0.75;0.32;;;22.50;99.90;;;;;;5113200;28;20040;-80
2021/12/19 13:17:39;;;;;;;1.08;0.80;;;22.40;99.90;;;;;;5113365;28;20063;-80
2021/12/19 13:20:15;;;;;;;0.95;0.30;;;22.40;99.90;;;;;;5114634;28;20197;-83
2021/12/19 13:23:03;;;;;;;0.43;0.30;;;22.40;99.90;;;;;;5112908;28;20023;-80
2021/12/19 13:25:39;;;;;;;2.40;0.40;;;22.40;99.90;;;;;;5102801;27;20024;-79
2021/12/19 13:28:15;;;;;;;0.75;0.20;;;22.40;99.90;;;;;;5106003;28;20036;-81
2021/12/19 13:30:42;;;;;;;;;;;22.40;99.90;;;;;;5106599;28;20456;-80
2021/12/19 13:33:15;;;;;;;2.17;0.45;;;22.30;99.90;;;;;;5112518;28;20053;-84
2021/12/19 13:35:51;;;;;;;0.47;0.30;;;22.30;99.90;;;;;;5111660;28;20019;-81
2021/12/19 13:38:20;;;;;;;1.45;0.50;;;22.20;99.90;;;;;;5113820;28;20024;-81
2021/12/19 13:40:51;;;;;;;1.38;0.40;;;22.10;99.90;;;;;;5098932;28;20100;-83
2021/12/19 13:43:22;;;;;;;0.50;0.30;;;22.10;99.90;;;;;;5113155;28;20024;-80
2021/12/19 13:46:08;;;;;;;0.30;0.30;;;22.10;99.90;;;;;;5109404;28;20067;-81
2021/12/19 13:48:41;;;;;;;2.05;0.20;;;22.00;99.90;;;;;;5094282;28;20024;-83
2021/12/19 13:51:12;;;;;;;0.50;0.30;;;22.10;99.90;;;;;;5101123;28;20390;-81
2021/12/19 13:53:48;;;;;;;0.20;0.20;;;22.00;99.90;;;;;;5113749;28;20123;-81
2021/12/19 13:56:21;;;;;;;3.55;0.32;;;22.10;99.90;;;;;;5112091;28;20479;-82
2021/12/19 13:58:54;;;;;;;0.73;0.30;;;22.10;99.90;;;;;;5102781;28;20058;-80
2021/12/19 14:01:27;;;;;;;1.95;0.30;;;22.00;99.90;;;;;;5109393;28;20028;-79
2021/12/19 14:03:58;;;;;;;1.73;0.28;;;22.00;99.90;;;;;;5104372;28;20073;-84
2021/12/19 14:06:31;;;;;;;0.60;0.30;;;22.00;99.90;;;;;;5106308;28;20077;-82
2021/12/19 14:09:01;;;;;;;0.82;0.22;;;21.90;99.90;;;;;;5093582;28;20479;-83
2021/12/19 14:11:30;;;;;;;0.82;0.50;;;21.80;99.90;;;;;;5102360;28;20073;-83
2021/12/19 14:14:09;;;;;;;1.50;0.30;;;21.70;99.90;;;;;;5114574;28;20035;-84
2021/12/19 14:16:45;;;;;;;0.73;0.30;;;21.70;99.90;;;;;;5108772;28;20055;-82
2021/12/19 14:19:22;;;;;;;0.75;0.22;;;21.70;99.90;;;;;;5101545;28;20034;-83
2021/12/19 14:22:09;;;;;;;0.57;0.30;;;21.60;99.90;;;;;;5102857;28;20378;-83
2021/12/19 14:24:41;;;;;;;0.50;0.35;;;21.60;99.90;;;;;;5104469;28;20049;-83
2021/12/19 14:27:28;;;;;;;1.00;0.40;;;21.50;99.90;;;;;;5109930;28;20417;-82